sensor_id;sensor_type;location;lat;lon;timestamp;pressure;altitude;pressure_sealevel;temperature;humidity
50434;BME280;36361;38.954;-9.002;2024-01-27T00:00:12;101788.44;;;15.34;100.00
50434;BME280;36361;38.954;-9.002;2024-01-27T00:01:14;101781.75;;;15.61;100.00
50434;BME280;36361;38.954;-9.002;2024-01-27T00:02:15;101781.38;;;15.51;100.00
50434;BME280;36361;38.954;-9.002;2024-01-27T00:03:16;101788.75;;;15.51;100.00
50434;BME280;36361;38.954;-9.002;2024-01-27T00:04:17;101780.13;;;15.47;100.00
50434;BME280;36361;38.954;-9.002;2024-01-27T00:05:18;101791.50;;;15.51;100.00
50434;BME280;36361;38.954;-9.002;2024-01-27T00:06:19;101784.72;;;15.53;100.00
50434;BME280;36361;38.954;-9.002;2024-01-27T00:07:19;101780.16;;;15.41;100.00
50434;BME280;36361;38.954;-9.002;2024-01-27T00:08:21;101776.81;;;15.39;100.00
50434;BME280;36361;38.954;-9.002;2024-01-27T00:09:22;101778.56;;;15.26;100.00
50434;BME280;36361;38.954;-9.002;2024-01-27T00:10:23;101777.22;;;14.97;100.00
50434;BME280;36361;38.954;-9.002;2024-01-27T00:11:23;101780.03;;;14.84;100.00
50434;BME280;36361;38.954;-9.002;2024-01-27T00:12:25;101778.75;;;14.93;100.00
50434;BME280;36361;38.954;-9.002;2024-01-27T00:13:25;101774.31;;;14.92;100.00
50434;BME280;36361;38.954;-9.002;2024-01-27T00:14:27;101774.53;;;14.91;100.00
50434;BME280;36361;38.954;-9.002;2024-01-27T00:15:28;101775.38;;;14.91;100.00
50434;BME280;36361;38.954;-9.002;2024-01-27T00:16:29;101773.97;;;14.75;100.00
50434;BME280;36361;38.954;-9.002;2024-01-27T00:17:30;101767.63;;;14.75;100.00
50434;BME280;36361;38.954;-9.002;2024-01-27T00:18:30;101767.84;;;14.73;100.00
50434;BME280;36361;38.954;-9.002;2024-01-27T00:19:31;101765.50;;;14.77;100.00
50434;BME280;36361;38.954;-9.002;2024-01-27T00:20:32;101772.88;;;14.83;100.00
50434;BME280;36361;38.954;-9.002;2024-01-27T00:21:33;101766.94;;;14.93;100.00
50434;BME280;36361;38.954;-9.002;2024-01-27T00:22:34;101763.47;;;15.11;100.00
50434;BME280;36361;38.954;-9.002;2024-01-27T00:23:35;101772.66;;;14.85;100.00
50434;BME280;36361;38.954;-9.002;2024-01-27T00:24:35;101768.00;;;14.85;100.00
50434;BME280;36361;38.954;-9.002;2024-01-27T00:25:36;101770.31;;;14.88;100.00
50434;BME280;36361;38.954;-9.002;2024-01-27T00:26:37;101772.03;;;14.83;100.00
50434;BME280;36361;38.954;-9.002;2024-01-27T00:27:38;101773.50;;;14.85;100.00
50434;BME280;36361;38.954;-9.002;2024-01-27T00:28:39;101765.44;;;14.90;100.00
50434;BME280;36361;38.954;-9.002;2024-01-27T00:29:39;101766.97;;;14.86;100.00
50434;BME280;36361;38.954;-9.002;2024-01-27T00:30:40;101764.84;;;14.88;100.00
50434;BME280;36361;38.954;-9.002;2024-01-27T00:31:41;101759.41;;;14.75;100.00
50434;BME280;36361;38.954;-9.002;2024-01-27T00:32:42;101767.84;;;14.73;100.00
50434;BME280;36361;38.954;-9.002;2024-01-27T00:33:43;101752.56;;;14.97;100.00
50434;BME280;36361;38.954;-9.002;2024-01-27T00:34:43;101756.38;;;14.96;100.00
50434;BME280;36361;38.954;-9.002;2024-01-27T00:35:44;101760.19;;;14.89;100.00
50434;BME280;36361;38.954;-9.002;2024-01-27T00:36:45;101761.47;;;14.86;100.00
50434;BME280;36361;38.954;-9.002;2024-01-27T00:37:49;101760.63;;;14.86;100.00
50434;BME280;36361;38.954;-9.002;2024-01-27T00:38:50;101767.75;;;15.00;100.00
50434;BME280;36361;38.954;-9.002;2024-01-27T00:39:50;101754.53;;;15.22;100.00
50434;BME280;36361;38.954;-9.002;2024-01-27T00:40:51;101759.22;;;15.15;100.00
50434;BME280;36361;38.954;-9.002;2024-01-27T00:41:52;101754.88;;;15.00;100.00
50434;BME280;36361;38.954;-9.002;2024-01-27T00:42:55;101761.03;;;14.89;100.00
50434;BME280;36361;38.954;-9.002;2024-01-27T00:43:56;101765.72;;;14.82;100.00
50434;BME280;36361;38.954;-9.002;2024-01-27T00:44:57;101761.72;;;14.78;100.00
50434;BME280;36361;38.954;-9.002;2024-01-27T00:45:57;101758.53;;;14.81;100.00
50434;BME280;36361;38.954;-9.002;2024-01-27T00:46:58;101754.78;;;14.75;100.00
50434;BME280;36361;38.954;-9.002;2024-01-27T00:47:59;101754.56;;;14.70;100.00
50434;BME280;36361;38.954;-9.002;2024-01-27T00:49:00;101751.84;;;14.70;100.00
50434;BME280;36361;38.954;-9.002;2024-01-27T00:50:01;101753.03;;;14.81;100.00
50434;BME280;36361;38.954;-9.002;2024-01-27T00:51:01;101748.91;;;14.65;100.00
50434;BME280;36361;38.954;-9.002;2024-01-27T00:52:02;101750.97;;;14.76;100.00
50434;BME280;36361;38.954;-9.002;2024-01-27T00:53:03;101756.84;;;14.80;100.00
50434;BME280;36361;38.954;-9.002;2024-01-27T00:54:04;101754.78;;;14.69;100.00
50434;BME280;36361;38.954;-9.002;2024-01-27T00:55:05;101753.31;;;14.73;100.00
50434;BME280;36361;38.954;-9.002;2024-01-27T00:56:06;101751.22;;;14.62;100.00
50434;BME280;36361;38.954;-9.002;2024-01-27T00:57:07;101754.81;;;14.62;100.00
50434;BME280;36361;38.954;-9.002;2024-01-27T00:58:08;101754.81;;;14.62;100.00
50434;BME280;36361;38.954;-9.002;2024-01-27T00:59:08;101741.09;;;14.69;100.00
50434;BME280;36361;38.954;-9.002;2024-01-27T01:00:10;101749.13;;;14.64;100.00
50434;BME280;36361;38.954;-9.002;2024-01-27T01:01:11;101747.88;;;14.60;100.00
50434;BME280;36361;38.954;-9.002;2024-01-27T01:02:12;101745.13;;;14.60;100.00
50434;BME280;36361;38.954;-9.002;2024-01-27T01:03:12;101751.19;;;14.75;100.00
50434;BME280;36361;38.954;-9.002;2024-01-27T01:04:13;101743.38;;;14.72;100.00
50434;BME280;36361;38.954;-9.002;2024-01-27T01:05:15;101743.78;;;14.82;100.00
50434;BME280;36361;38.954;-9.002;2024-01-27T01:06:16;101742.75;;;14.76;100.00
50434;BME280;36361;38.954;-9.002;2024-01-27T01:07:17;101749.69;;;14.79;100.00
50434;BME280;36361;38.954;-9.002;2024-01-27T01:08:17;101756.00;;;14.79;100.00
50434;BME280;36361;38.954;-9.002;2024-01-27T01:09:18;101739.22;;;14.63;100.00
50434;BME280;36361;38.954;-9.002;2024-01-27T01:10:19;101748.94;;;14.59;100.00
50434;BME280;36361;38.954;-9.002;2024-01-27T01:11:20;101747.25;;;14.58;100.00
50434;BME280;36361;38.954;-9.002;2024-01-27T01:12:20;101740.53;;;14.40;100.00
50434;BME280;36361;38.954;-9.002;2024-01-27T01:13:21;101739.47;;;14.55;100.00
50434;BME280;36361;38.954;-9.002;2024-01-27T01:14:22;101737.59;;;14.48;100.00
50434;BME280;36361;38.954;-9.002;2024-01-27T01:15:23;101735.47;;;14.50;100.00
50434;BME280;36361;38.954;-9.002;2024-01-27T01:16:24;101732.56;;;14.45;100.00
50434;BME280;36361;38.954;-9.002;2024-01-27T01:17:24;101728.31;;;14.49;100.00
50434;BME280;36361;38.954;-9.002;2024-01-27T01:18:25;101733.38;;;14.46;100.00
50434;BME280;36361;38.954;-9.002;2024-01-27T01:19:26;101733.53;;;14.44;100.00
50434;BME280;36361;38.954;-9.002;2024-01-27T01:20:27;101732.56;;;14.45;100.00
50434;BME280;36361;38.954;-9.002;2024-01-27T01:21:28;101735.28;;;14.45;100.00
50434;BME280;36361;38.954;-9.002;2024-01-27T01:22:29;101729.53;;;14.54;100.00
50434;BME280;36361;38.954;-9.002;2024-01-27T01:23:29;101723.88;;;14.42;100.00
50434;BME280;36361;38.954;-9.002;2024-01-27T01:24:30;101730.41;;;14.34;100.00
50434;BME280;36361;38.954;-9.002;2024-01-27T01:25:32;101728.50;;;14.41;100.00
50434;BME280;36361;38.954;-9.002;2024-01-27T01:26:32;101726.22;;;14.38;100.00
50434;BME280;36361;38.954;-9.002;2024-01-27T01:27:33;101723.25;;;14.33;100.00
50434;BME280;36361;38.954;-9.002;2024-01-27T01:28:34;101727.06;;;14.32;100.00
50434;BME280;36361;38.954;-9.002;2024-01-27T01:29:35;101727.88;;;14.39;100.00
50434;BME280;36361;38.954;-9.002;2024-01-27T01:30:36;101725.78;;;14.41;100.00
50434;BME280;36361;38.954;-9.002;2024-01-27T01:31:36;101723.66;;;14.43;100.00
50434;BME280;36361;38.954;-9.002;2024-01-27T01:32:37;101727.06;;;14.45;100.00
50434;BME280;36361;38.954;-9.002;2024-01-27T01:33:38;101731.66;;;14.51;100.00
50434;BME280;36361;38.954;-9.002;2024-01-27T01:34:39;101727.41;;;14.69;100.00
50434;BME280;36361;38.954;-9.002;2024-01-27T01:35:40;101722.75;;;14.69;100.00
50434;BME280;36361;38.954;-9.002;2024-01-27T01:36:40;101728.06;;;14.64;100.00
50434;BME280;36361;38.954;-9.002;2024-01-27T01:37:41;101728.00;;;14.71;100.00
50434;BME280;36361;38.954;-9.002;2024-01-27T01:38:42;101718.59;;;14.54;100.00
50434;BME280;36361;38.954;-9.002;2024-01-27T01:39:43;101719.47;;;14.54;100.00
50434;BME280;36361;38.954;-9.002;2024-01-27T01:40:44;101720.47;;;14.60;100.00
50434;BME280;36361;38.954;-9.002;2024-01-27T01:41:45;101717.34;;;14.49;100.00
50434;BME280;36361;38.954;-9.002;2024-01-27T01:42:50;101720.72;;;14.38;100.00
50434;BME280;36361;38.954;-9.002;2024-01-27T01:43:52;101715.88;;;14.40;100.00
50434;BME280;36361;38.954;-9.002;2024-01-27T01:44:53;101721.97;;;14.42;100.00
50434;BME280;36361;38.954;-9.002;2024-01-27T01:45:54;101712.31;;;14.46;100.00
50434;BME280;36361;38.954;-9.002;2024-01-27T01:46:55;101712.31;;;14.40;100.00
50434;BME280;36361;38.954;-9.002;2024-01-27T01:47:56;101712.13;;;14.28;100.00
50434;BME280;36361;38.954;-9.002;2024-01-27T01:48:57;101710.19;;;14.48;100.00
50434;BME280;36361;38.954;-9.002;2024-01-27T01:49:58;101706.84;;;14.33;100.00
50434;BME280;36361;38.954;-9.002;2024-01-27T01:51:00;101706.00;;;14.26;100.00
50434;BME280;36361;38.954;-9.002;2024-01-27T01:52:01;101708.56;;;14.21;100.00
50434;BME280;36361;38.954;-9.002;2024-01-27T01:53:02;101706.16;;;14.44;100.00
50434;BME280;36361;38.954;-9.002;2024-01-27T01:54:04;101705.53;;;14.56;100.00
50434;BME280;36361;38.954;-9.002;2024-01-27T01:55:05;101708.06;;;14.50;100.00
50434;BME280;36361;38.954;-9.002;2024-01-27T01:56:06;101711.84;;;14.43;100.00
50434;BME280;36361;38.954;-9.002;2024-01-27T01:57:09;101715.69;;;14.48;100.00
50434;BME280;36361;38.954;-9.002;2024-01-27T01:58:10;101708.28;;;14.56;100.00
50434;BME280;36361;38.954;-9.002;2024-01-27T01:59:11;101715.19;;;14.65;100.00
50434;BME280;36361;38.954;-9.002;2024-01-27T02:00:12;101710.19;;;14.55;100.00
50434;BME280;36361;38.954;-9.002;2024-01-27T02:01:14;101708.69;;;14.52;100.00
50434;BME280;36361;38.954;-9.002;2024-01-27T02:02:16;101714.00;;;14.47;100.00
50434;BME280;36361;38.954;-9.002;2024-01-27T02:03:16;101721.16;;;14.48;100.00
50434;BME280;36361;38.954;-9.002;2024-01-27T02:04:17;101717.78;;;14.46;100.00
50434;BME280;36361;38.954;-9.002;2024-01-27T02:05:18;101710.78;;;14.64;100.00
50434;BME280;36361;38.954;-9.002;2024-01-27T02:06:19;101716.50;;;14.56;100.00
50434;BME280;36361;38.954;-9.002;2024-01-27T02:07:20;101713.97;;;14.41;100.00
50434;BME280;36361;38.954;-9.002;2024-01-27T02:08:21;101724.97;;;14.47;100.00
50434;BME280;36361;38.954;-9.002;2024-01-27T02:09:22;101722.41;;;14.39;100.00
50434;BME280;36361;38.954;-9.002;2024-01-27T02:10:23;101710.78;;;14.44;100.00
50434;BME280;36361;38.954;-9.002;2024-01-27T02:11:24;101722.41;;;14.39;100.00
50434;BME280;36361;38.954;-9.002;2024-01-27T02:12:24;101717.78;;;14.33;100.00
50434;BME280;36361;38.954;-9.002;2024-01-27T02:13:25;101714.22;;;14.33;100.00
50434;BME280;36361;38.954;-9.002;2024-01-27T02:14:27;101721.13;;;14.42;100.00
50434;BME280;36361;38.954;-9.002;2024-01-27T02:15:28;101714.66;;;14.30;100.00
50434;BME280;36361;38.954;-9.002;2024-01-27T02:16:29;101719.06;;;14.37;100.00
50434;BME280;36361;38.954;-9.002;2024-01-27T02:17:30;101713.19;;;14.27;100.00
50434;BME280;36361;38.954;-9.002;2024-01-27T02:18:31;101718.00;;;14.38;100.00
50434;BME280;36361;38.954;-9.002;2024-01-27T02:19:32;101712.75;;;14.23;100.00
50434;BME280;36361;38.954;-9.002;2024-01-27T02:20:32;101726.63;;;14.35;100.00
50434;BME280;36361;38.954;-9.002;2024-01-27T02:21:33;101707.50;;;14.22;100.00
50434;BME280;36361;38.954;-9.002;2024-01-27T02:22:35;101721.78;;;14.37;100.00
50434;BME280;36361;38.954;-9.002;2024-01-27T02:23:36;101719.84;;;14.44;100.00
50434;BME280;36361;38.954;-9.002;2024-01-27T02:24:37;101720.13;;;14.36;100.00
50434;BME280;36361;38.954;-9.002;2024-01-27T02:25:38;101711.06;;;14.29;100.00
50434;BME280;36361;38.954;-9.002;2024-01-27T02:26:38;101718.91;;;14.06;100.00
50434;BME280;36361;38.954;-9.002;2024-01-27T02:27:39;101714.88;;;14.15;100.00
50434;BME280;36361;38.954;-9.002;2024-01-27T02:28:40;101711.13;;;14.09;100.00
50434;BME280;36361;38.954;-9.002;2024-01-27T02:29:41;101715.31;;;13.99;100.00
50434;BME280;36361;38.954;-9.002;2024-01-27T02:30:42;101707.34;;;13.97;100.00
50434;BME280;36361;38.954;-9.002;2024-01-27T02:31:43;101713.66;;;14.11;100.00
50434;BME280;36361;38.954;-9.002;2024-01-27T02:32:43;101712.81;;;14.04;100.00
50434;BME280;36361;38.954;-9.002;2024-01-27T02:33:45;101716.59;;;14.03;100.00
50434;BME280;36361;38.954;-9.002;2024-01-27T02:34:45;101712.81;;;13.97;100.00
50434;BME280;36361;38.954;-9.002;2024-01-27T02:35:46;101714.53;;;13.91;100.00
50434;BME280;36361;38.954;-9.002;2024-01-27T02:36:48;101711.56;;;13.86;100.00
50434;BME280;36361;38.954;-9.002;2024-01-27T02:37:49;101710.06;;;14.04;100.00
50434;BME280;36361;38.954;-9.002;2024-01-27T02:38:50;101706.09;;;14.00;100.00
50434;BME280;36361;38.954;-9.002;2024-01-27T02:39:51;101708.34;;;14.29;100.00
50434;BME280;36361;38.954;-9.002;2024-01-27T02:40:52;101704.75;;;14.29;100.00
50434;BME280;36361;38.954;-9.002;2024-01-27T02:41:52;101702.66;;;14.24;100.00
50434;BME280;36361;38.954;-9.002;2024-01-27T02:42:53;101705.56;;;14.49;100.00
50434;BME280;36361;38.954;-9.002;2024-01-27T02:43:54;101708.06;;;14.44;100.00
50434;BME280;36361;38.954;-9.002;2024-01-27T02:44:55;101699.88;;;14.37;100.00
50434;BME280;36361;38.954;-9.002;2024-01-27T02:45:56;101699.34;;;14.09;100.00
50434;BME280;36361;38.954;-9.002;2024-01-27T02:46:57;101704.38;;;13.99;100.00
50434;BME280;36361;38.954;-9.002;2024-01-27T02:47:57;101703.34;;;13.86;100.00
50434;BME280;36361;38.954;-9.002;2024-01-27T02:48:58;101701.47;;;13.93;100.00
50434;BME280;36361;38.954;-9.002;2024-01-27T02:49:59;101702.09;;;13.82;100.00
50434;BME280;36361;38.954;-9.002;2024-01-27T02:51:03;101701.44;;;13.80;100.00
50434;BME280;36361;38.954;-9.002;2024-01-27T02:52:04;101707.38;;;13.90;100.00
50434;BME280;36361;38.954;-9.002;2024-01-27T02:53:05;101701.47;;;13.87;100.00
50434;BME280;36361;38.954;-9.002;2024-01-27T02:54:06;101709.66;;;13.80;100.00
50434;BME280;36361;38.954;-9.002;2024-01-27T02:55:07;101704.41;;;13.85;100.00
50434;BME280;36361;38.954;-9.002;2024-01-27T02:56:08;101712.41;;;13.93;100.00
50434;BME280;36361;38.954;-9.002;2024-01-27T02:57:09;101713.25;;;13.87;100.00
50434;BME280;36361;38.954;-9.002;2024-01-27T02:58:10;101721.44;;;14.01;100.00
50434;BME280;36361;38.954;-9.002;2024-01-27T02:59:11;101707.56;;;13.95;100.00
50434;BME280;36361;38.954;-9.002;2024-01-27T03:00:13;101709.00;;;14.05;100.00
50434;BME280;36361;38.954;-9.002;2024-01-27T03:01:13;101715.75;;;14.09;100.00
50434;BME280;36361;38.954;-9.002;2024-01-27T03:02:14;101703.97;;;14.02;100.00
50434;BME280;36361;38.954;-9.002;2024-01-27T03:03:15;101709.44;;;14.02;100.00
50434;BME280;36361;38.954;-9.002;2024-01-27T03:04:16;101710.69;;;14.19;100.00
50434;BME280;36361;38.954;-9.002;2024-01-27T03:05:17;101708.56;;;14.08;100.00
50434;BME280;36361;38.954;-9.002;2024-01-27T03:06:18;101709.03;;;13.91;100.00
50434;BME280;36361;38.954;-9.002;2024-01-27T03:07:19;101712.19;;;13.88;100.00
50434;BME280;36361;38.954;-9.002;2024-01-27T03:08:19;101708.19;;;13.84;100.00
50434;BME280;36361;38.954;-9.002;2024-01-27T03:09:20;101710.28;;;14.02;100.00
50434;BME280;36361;38.954;-9.002;2024-01-27T03:10:21;101709.84;;;14.12;100.00
50434;BME280;36361;38.954;-9.002;2024-01-27T03:11:22;101708.56;;;14.08;100.00
50434;BME280;36361;38.954;-9.002;2024-01-27T03:12:23;101710.50;;;13.94;100.00
50434;BME280;36361;38.954;-9.002;2024-01-27T03:13:23;101698.72;;;13.87;100.00
50434;BME280;36361;38.954;-9.002;2024-01-27T03:14:24;101708.16;;;13.98;100.00
50434;BME280;36361;38.954;-9.002;2024-01-27T03:15:25;101705.03;;;13.94;100.00
50434;BME280;36361;38.954;-9.002;2024-01-27T03:16:26;101703.16;;;13.81;100.00
50434;BME280;36361;38.954;-9.002;2024-01-27T03:17:27;101711.16;;;13.76;100.00
50434;BME280;36361;38.954;-9.002;2024-01-27T03:18:28;101710.09;;;13.90;100.00
50434;BME280;36361;38.954;-9.002;2024-01-27T03:19:28;101707.34;;;13.77;100.00
50434;BME280;36361;38.954;-9.002;2024-01-27T03:20:29;101704.63;;;13.84;100.00
50434;BME280;36361;38.954;-9.002;2024-01-27T03:21:31;101704.00;;;13.75;100.00
50434;BME280;36361;38.954;-9.002;2024-01-27T03:22:33;101701.69;;;13.72;100.00
50434;BME280;36361;38.954;-9.002;2024-01-27T03:23:33;101702.50;;;13.79;100.00
50434;BME280;36361;38.954;-9.002;2024-01-27T03:24:34;101701.06;;;13.83;100.00
50434;BME280;36361;38.954;-9.002;2024-01-27T03:25:35;101704.44;;;13.65;100.00
50434;BME280;36361;38.954;-9.002;2024-01-27T03:26:36;101700.00;;;13.91;100.00
50434;BME280;36361;38.954;-9.002;2024-01-27T03:27:37;101703.56;;;13.91;100.00
50434;BME280;36361;38.954;-9.002;2024-01-27T03:28:37;101698.09;;;13.85;100.00
50434;BME280;36361;38.954;-9.002;2024-01-27T03:29:38;101704.84;;;13.82;100.00
50434;BME280;36361;38.954;-9.002;2024-01-27T03:30:39;101704.19;;;13.80;100.00
50434;BME280;36361;38.954;-9.002;2024-01-27T03:31:40;101695.56;;;13.70;100.00
50434;BME280;36361;38.954;-9.002;2024-01-27T03:32:40;101703.59;;;13.65;100.00
50434;BME280;36361;38.954;-9.002;2024-01-27T03:33:41;101697.28;;;13.58;100.00
50434;BME280;36361;38.954;-9.002;2024-01-27T03:34:45;101696.00;;;13.60;100.00
50434;BME280;36361;38.954;-9.002;2024-01-27T03:35:46;101700.22;;;13.63;100.00
50434;BME280;36361;38.954;-9.002;2024-01-27T03:36:49;101694.53;;;13.58;100.00
50434;BME280;36361;38.954;-9.002;2024-01-27T03:37:50;101695.16;;;13.73;100.00
50434;BME280;36361;38.954;-9.002;2024-01-27T03:38:52;101700.22;;;13.63;100.00
50434;BME280;36361;38.954;-9.002;2024-01-27T03:39:53;101699.56;;;13.68;100.00
50434;BME280;36361;38.954;-9.002;2024-01-27T03:40:53;101702.72;;;13.71;100.00
50434;BME280;36361;38.954;-9.002;2024-01-27T03:41:59;101696.44;;;13.57;100.00
50434;BME280;36361;38.954;-9.002;2024-01-27T03:43:00;101703.16;;;13.81;100.00
50434;BME280;36361;38.954;-9.002;2024-01-27T03:44:01;101699.78;;;13.79;100.00
50434;BME280;36361;38.954;-9.002;2024-01-27T03:45:02;101697.03;;;13.79;100.00
50434;BME280;36361;38.954;-9.002;2024-01-27T03:46:03;101702.69;;;13.98;100.00
50434;BME280;36361;38.954;-9.002;2024-01-27T03:47:03;101700.56;;;14.13;100.00
50434;BME280;36361;38.954;-9.002;2024-01-27T03:48:05;101701.06;;;13.90;100.00
50434;BME280;36361;38.954;-9.002;2024-01-27T03:49:05;101698.97;;;13.72;100.00
50434;BME280;36361;38.954;-9.002;2024-01-27T03:50:07;101690.53;;;13.67;100.00
50434;BME280;36361;38.954;-9.002;2024-01-27T03:51:08;101692.00;;;13.56;100.00
50434;BME280;36361;38.954;-9.002;2024-01-27T03:52:09;101684.03;;;13.55;100.00
50434;BME280;36361;38.954;-9.002;2024-01-27T03:53:10;101689.06;;;13.51;100.00
50434;BME280;36361;38.954;-9.002;2024-01-27T03:54:11;101692.22;;;13.55;100.00
50434;BME280;36361;38.954;-9.002;2024-01-27T03:55:12;101686.31;;;13.51;100.00
50434;BME280;36361;38.954;-9.002;2024-01-27T03:56:13;101682.94;;;13.43;100.00
50434;BME280;36361;38.954;-9.002;2024-01-27T03:57:13;101687.16;;;13.38;100.00
50434;BME280;36361;38.954;-9.002;2024-01-27T03:58:14;101681.91;;;13.30;100.00
50434;BME280;36361;38.954;-9.002;2024-01-27T03:59:15;101682.09;;;13.62;100.00
50434;BME280;36361;38.954;-9.002;2024-01-27T04:00:16;101678.75;;;13.60;100.00
50434;BME280;36361;38.954;-9.002;2024-01-27T04:01:17;101677.28;;;13.64;100.00
50434;BME280;36361;38.954;-9.002;2024-01-27T04:02:18;101670.75;;;13.72;100.00
50434;BME280;36361;38.954;-9.002;2024-01-27T04:03:18;101678.56;;;13.55;100.00
50434;BME280;36361;38.954;-9.002;2024-01-27T04:04:19;101676.66;;;13.55;100.00
50434;BME280;36361;38.954;-9.002;2024-01-27T04:05:20;101676.22;;;13.65;100.00
50434;BME280;36361;38.954;-9.002;2024-01-27T04:06:21;101669.09;;;13.37;100.00
50434;BME280;36361;38.954;-9.002;2024-01-27T04:07:21;101675.81;;;13.42;100.00
50434;BME280;36361;38.954;-9.002;2024-01-27T04:08:22;101671.59;;;13.59;100.00
50434;BME280;36361;38.954;-9.002;2024-01-27T04:09:23;101674.34;;;13.59;100.00
50434;BME280;36361;38.954;-9.002;2024-01-27T04:10:24;101677.50;;;13.49;100.00
50434;BME280;36361;38.954;-9.002;2024-01-27T04:11:25;101669.94;;;13.45;100.00
50434;BME280;36361;38.954;-9.002;2024-01-27T04:12:26;101673.94;;;13.35;100.00
50434;BME280;36361;38.954;-9.002;2024-01-27T04:13:26;101669.91;;;13.31;100.00
50434;BME280;36361;38.954;-9.002;2024-01-27T04:14:27;101667.38;;;13.23;100.00
50434;BME280;36361;38.954;-9.002;2024-01-27T04:15:28;101667.41;;;13.36;100.00
50434;BME280;36361;38.954;-9.002;2024-01-27T04:16:29;101665.06;;;13.33;100.00
50434;BME280;36361;38.954;-9.002;2024-01-27T04:17:30;101670.97;;;13.30;100.00
50434;BME280;36361;38.954;-9.002;2024-01-27T04:18:30;101671.59;;;13.19;100.00
50434;BME280;36361;38.954;-9.002;2024-01-27T04:19:31;101673.28;;;13.27;100.00
50434;BME280;36361;38.954;-9.002;2024-01-27T04:20:32;101665.25;;;13.25;100.00
50434;BME280;36361;38.954;-9.002;2024-01-27T04:21:33;101676.03;;;13.27;100.00
50434;BME280;36361;38.954;-9.002;2024-01-27T04:22:34;101673.28;;;13.27;100.00
50434;BME280;36361;38.954;-9.002;2024-01-27T04:23:35;101671.59;;;13.19;100.00
50434;BME280;36361;38.954;-9.002;2024-01-27T04:24:36;101680.41;;;13.21;100.00
50434;BME280;36361;38.954;-9.002;2024-01-27T04:25:37;101669.50;;;13.28;100.00
50434;BME280;36361;38.954;-9.002;2024-01-27T04:26:38;101668.66;;;13.41;100.00
50434;BME280;36361;38.954;-9.002;2024-01-27T04:27:39;101681.66;;;13.25;100.00
50434;BME280;36361;38.954;-9.002;2024-01-27T04:28:40;101682.13;;;13.35;100.00
50434;BME280;36361;38.954;-9.002;2024-01-27T04:29:41;101671.19;;;13.35;100.00
50434;BME280;36361;38.954;-9.002;2024-01-27T04:30:42;101682.13;;;13.49;100.00
50434;BME280;36361;38.954;-9.002;2024-01-27T04:31:43;101674.09;;;13.34;100.00
50434;BME280;36361;38.954;-9.002;2024-01-27T04:32:44;101677.47;;;13.29;100.00
50434;BME280;36361;38.954;-9.002;2024-01-27T04:33:44;101671.63;;;13.46;100.00
50434;BME280;36361;38.954;-9.002;2024-01-27T04:34:45;101678.94;;;13.25;100.00
50434;BME280;36361;38.954;-9.002;2024-01-27T04:35:46;101671.38;;;13.21;100.00
50434;BME280;36361;38.954;-9.002;2024-01-27T04:36:47;101681.69;;;13.32;100.00
50434;BME280;36361;38.954;-9.002;2024-01-27T04:37:48;101678.94;;;13.25;100.00
50434;BME280;36361;38.954;-9.002;2024-01-27T04:38:49;101683.75;;;13.17;100.00
50434;BME280;36361;38.954;-9.002;2024-01-27T04:39:49;101682.75;;;13.37;100.00
50434;BME280;36361;38.954;-9.002;2024-01-27T04:40:51;101678.72;;;13.33;100.00
50434;BME280;36361;38.954;-9.002;2024-01-27T04:41:52;101675.81;;;13.28;100.00
50434;BME280;36361;38.954;-9.002;2024-01-27T04:42:53;101678.75;;;13.20;100.00
50434;BME280;36361;38.954;-9.002;2024-01-27T04:43:54;101682.31;;;13.21;100.00
50434;BME280;36361;38.954;-9.002;2024-01-27T04:44:57;101679.59;;;13.27;100.00
50434;BME280;36361;38.954;-9.002;2024-01-27T04:45:57;101677.63;;;13.15;100.00
50434;BME280;36361;38.954;-9.002;2024-01-27T04:46:58;101677.69;;;13.21;100.00
50434;BME280;36361;38.954;-9.002;2024-01-27T04:47:59;101682.13;;;13.35;100.00
50434;BME280;36361;38.954;-9.002;2024-01-27T04:49:01;101678.75;;;13.20;100.00
50434;BME280;36361;38.954;-9.002;2024-01-27T04:50:02;101681.28;;;13.28;100.00
50434;BME280;36361;38.954;-9.002;2024-01-27T04:51:04;101658.97;;;13.31;100.00
50434;BME280;36361;38.954;-9.002;2024-01-27T04:52:05;101668.59;;;13.14;100.00
50434;BME280;36361;38.954;-9.002;2024-01-27T04:53:06;101669.03;;;13.18;100.00
50434;BME280;36361;38.954;-9.002;2024-01-27T04:54:08;101675.16;;;13.20;100.00
50434;BME280;36361;38.954;-9.002;2024-01-27T04:55:09;101674.28;;;13.13;100.00
50434;BME280;36361;38.954;-9.002;2024-01-27T04:56:09;101671.53;;;13.06;100.00
50434;BME280;36361;38.954;-9.002;2024-01-27T04:57:13;101672.38;;;13.13;100.00
50434;BME280;36361;38.954;-9.002;2024-01-27T04:58:13;101665.25;;;13.25;100.00
50434;BME280;36361;38.954;-9.002;2024-01-27T04:59:14;101670.72;;;13.19;100.00
50434;BME280;36361;38.954;-9.002;2024-01-27T05:00:15;101665.72;;;13.35;100.00
50434;BME280;36361;38.954;-9.002;2024-01-27T05:01:16;101674.13;;;13.27;100.00
50434;BME280;36361;38.954;-9.002;2024-01-27T05:02:18;101659.41;;;13.28;100.00
50434;BME280;36361;38.954;-9.002;2024-01-27T05:03:19;101656.47;;;13.36;100.00
50434;BME280;36361;38.954;-9.002;2024-01-27T05:04:20;101656.44;;;13.50;100.00
50434;BME280;36361;38.954;-9.002;2024-01-27T05:05:21;101659.41;;;13.55;100.00
50434;BME280;36361;38.954;-9.002;2024-01-27T05:06:22;101664.22;;;13.53;100.00
50434;BME280;36361;38.954;-9.002;2024-01-27T05:07:22;101668.22;;;13.70;100.00
50434;BME280;36361;38.954;-9.002;2024-01-27T05:08:23;101664.22;;;13.59;100.00
50434;BME280;36361;38.954;-9.002;2024-01-27T05:09:24;101654.34;;;13.52;100.00
50434;BME280;36361;38.954;-9.002;2024-01-27T05:10:25;101650.16;;;13.29;100.00